עמוד ראשי
METAR-TAF:

METAR-TAF

שדות תעופה :

Kailua-Kona, הוואי, ארצות הברית

קו רוחב: 19-44-27N, קו אורך: 156-03-02W, גובה: 13מטר

תצפית מזג אוויר נוכחית

הדו"ח נערך לפני 27דקות, בשעה 10:53 UTC
רוח 3קשר מכיוון מזרח
טמפרטורת 24 צלסיוס
לחות 83%
לחץ 1017 hPa
ראות: 16.1קילומטר
שמיים נקיים

METAR: PHKO 241053Z AUTO 08003KT 10SM CLR 24/21 A3002 RMK AO2 SLP164 T02440211 /

זמן: 01:20 (11:20 UTC)

תחזית

הדו"ח נערך לפני 6 שעות ו 0דקות, בשעה 05:20 UTC
תחזית בתוקף מ 24 ב 06 UTC עד 25 ב 06 UTC
רוח 6קשר מכיוון דרום-מזרח
ראות: 10קילומטר
מעט עננים בגובה 1000רגל
עננים פזורים בגובה 3000רגל
עננים בינוניים בגובה 4500רגל
ממטרים במרחב
מ 24 ב 2000UTC
רוח 8קשר מכיוון מערב/דרום-מערב
ראות: 10קילומטר
עננים פזורים בגובה 2000רגל
עננים פזורים בגובה 5000רגל
מ 25 ב 0500UTC
רוח 6קשר מכיוון דרום-מזרח
ראות: 10קילומטר
עננים פזורים בגובה 3000רגל
עננים בינוניים בגובה 5000רגל
ממטרים במרחב,

TAF: PHKO 240520Z 2406/2506 13006KT P6SM VCSH FEW010 SCT030 BKN045 FM242000 25008KT P6SM SCT020 SCT050 FM250500 13006KT P6SM VCSH SCT030 BKN050

תצפיות ותחזיות מזג אוויר לגבי יותר מ- 4,000 שדות תעופה ברחבי העולם. דוחות METAR ו- TAF.

התחנות הזמינות מסומנות בנקודות צהובות ואדומות על גבי המפה.

העבר את העכבר לנקודה הצבעונית על מנת לראות את שם התחנה.

לאחר מכן, לחץ כדי לראות את תוכן ואת תחזיות מזג האוויר.

כדי לשנות את המפה: לחץ על הכפתורים הירוקים עם הפלוס השחור כדי להתקרב; על הכפתור הירוק עם המקף כדי להתרחק; או בחיצים הירוקים למפות סמוכות.


METAR-TAF: